Aeroporto :
LOGIN :

Iscrizione | Disclaimer

   EN    FR    IT 

 










Sommario :    VFR   VFR Marginale   IFR   IFR Intensivo   IFR Molto Intensivo
Visibilità : 
Base nubi : 
>= 8 km
>= 3000ft
5 / 8 km
1000 / 3000 ft
1500m / 5 km
500 / 1000 ft
800 / 1500m
200 / 500 ft
< 800m
< 200 ft
Simboli :   Temporali  Nebbia  Neve Forte  Precipitazioni Forti  Vento > 20 kt
SIGMETs :   Varie  Temporali  Ghiacco  Turbolenza  Onda orograficha  Ceneri Vulcaniche







- Altitudine del aeroporto : 75 ft
- Codice IATA : YEO


EGDY - RNAS Yeovilton

ULTIMO METAR :
  • 191750Z 26009KT 9999 FEW035 SCT045 18/10 Q1017 BLU NOSIG RMK BLU BLU

METARs OBSOLETI :
  • 191722Z 28013KT 9999 SCT045 19/10 Q1017 BLU NOSIG RMK BLU BLU
  • 191650Z 27015KT 9999 SCT045 19/09 Q1017 BLU NOSIG RMK BLU BLU
  • 191620Z 28014KT 9999 SCT045 20/10 Q1017 NOSIG RMK BLU BLU
  • 191550Z 28016KT 9999 SCT045 20/09 Q1016 NOSIG RMK BLU BLU
  • 191520Z 28017KT 9999 SCT045 20/08 Q1016 NOSIG RMK BLU BLU

TAF TAF EGDY
Valido dal 19 a 18 ore il 20 a 03 ore UTC


191637Z 1918/2003 27015KT 9999 SCT040
PROB30
TEMPO 1918/1920 27015G25KT 7000 -SHRA SCT025TCU
BECMG 1920/1922 24005KT
Nessun NOTAM noto per questo aeroporto.



MetMap, La meteo Aeronautica in un colpo d'occhio ! - Copyright ORBIFLY Dicembre 2007 - Disclaimer

ORBIFLY MET'MAP TEAM :

Programmazione e sviluppo : Alexandra Zaïnal
Concezione e sviluppo : Baudouin d'Aumeries
Co-Programmazione e sviluppo : Marc-Olivier Méhu
Supporto tecnico e logistico : Manuel Goepfert
Aiuto per la traduzione : Arnaldo La Scala

Contatto : metmap@orbifly.com




FONTI E CREDITI :

   NOAA